createdAt,value
2023-03-06T06:30:45.935Z,99630.19
2023-03-06T06:33:58.605Z,99629.06
2023-03-06T06:37:10.956Z,99629.03
2023-03-06T06:40:24.447Z,99627.37
2023-03-06T06:43:37.307Z,99622.44
2023-03-06T06:47:21.148Z,99632.09
2023-03-06T06:50:22.714Z,99631.53
2023-03-06T06:53:35.443Z,99631.06
2023-03-06T06:56:48.577Z,99634.09
2023-03-06T07:00:01.206Z,99639.91
2023-03-06T07:03:14.162Z,99636.03
2023-03-06T07:06:26.926Z,99645.44
2023-03-06T07:09:40.224Z,99641.66
2023-03-06T07:12:52.819Z,99631.22
2023-03-06T07:16:05.682Z,99627.69
2023-03-06T07:19:18.321Z,99624.47
2023-03-06T07:22:41.425Z,99630.72
2023-03-06T07:26:01.468Z,99635.41
2023-03-06T07:32:26.847Z,99640.09
2023-03-06T07:35:39.327Z,99642.34
2023-03-06T07:38:52.053Z,99639.66
2023-03-06T07:42:05.165Z,99644.00
2023-03-06T07:45:17.938Z,99645.13
2023-03-06T07:48:30.466Z,99655.41
2023-03-06T07:51:43.174Z,99660.00
2023-03-06T07:54:55.923Z,99659.69
2023-03-06T07:58:08.570Z,99655.81
2023-03-06T08:01:23.556Z,99659.66
2023-03-06T08:04:36.184Z,99650.44
2023-03-06T08:07:48.567Z,99653.28
2023-03-06T08:11:01.204Z,99646.56
2023-03-06T08:14:13.539Z,99653.75
2023-03-06T08:17:26.633Z,99659.56
2023-03-06T08:20:39.002Z,99664.53
2023-03-06T08:23:51.744Z,99669.47
2023-03-06T08:27:04.073Z,99670.84
2023-03-06T08:30:17.039Z,99666.25
2023-03-06T08:33:29.436Z,99667.25
2023-03-06T08:36:42.618Z,99665.53
2023-03-06T08:39:55.001Z,99662.66
2023-03-06T08:43:12.979Z,99664.25
2023-03-06T08:46:27.651Z,99655.09
2023-03-06T08:49:40.313Z,99649.22
2023-03-06T08:52:52.630Z,99654.06
2023-03-06T08:56:05.672Z,99655.88
2023-03-06T08:59:19.443Z,99647.12
2023-03-06T09:02:32.604Z,99652.19
2023-03-06T09:05:45.031Z,99656.28
2023-03-06T09:08:57.668Z,99652.88
2023-03-06T09:12:10.070Z,99648.19
2023-03-06T09:15:23.091Z,99646.34
2023-03-06T09:18:35.606Z,99644.47
2023-03-06T09:21:49.239Z,99639.25
2023-03-06T09:25:01.640Z,99634.38
2023-03-06T09:28:14.482Z,99635.41
2023-03-06T09:31:26.872Z,99628.37
2023-03-06T09:34:39.563Z,99624.00
2023-03-06T09:37:51.933Z,99618.63
2023-03-06T09:41:16.795Z,99616.84
2023-03-06T09:44:32.504Z,99615.72
2023-03-06T09:48:11.155Z,99613.78
2023-03-06T09:51:27.836Z,99606.31
2023-03-06T09:54:40.325Z,99614.63
2023-03-06T09:58:10.830Z,99618.25
2023-03-06T10:01:28.129Z,99601.09
2023-03-06T10:04:41.397Z,99612.09
2023-03-06T10:08:00.834Z,99609.09
2023-03-06T10:11:13.564Z,99594.72
2023-03-06T10:14:28.857Z,99601.44
2023-03-06T10:17:42.015Z,99599.50
2023-03-06T10:21:17.006Z,99590.13
2023-03-06T10:24:45.807Z,99589.69
2023-03-06T10:28:18.742Z,99586.31
2023-03-06T10:31:31.376Z,99584.91
2023-03-06T10:34:43.757Z,99576.69
2023-03-06T10:38:17.300Z,99565.47
2023-03-06T10:41:35.295Z,99553.47
2023-03-06T10:44:47.940Z,99551.47
2023-03-06T10:48:11.940Z,99547.81
2023-03-06T10:51:24.974Z,99554.06
2023-03-06T10:54:38.988Z,99551.25
2023-03-06T10:57:51.736Z,99544.59
2023-03-06T11:01:06.952Z,99542.00
2023-03-06T11:04:24.244Z,99531.28
2023-03-06T11:07:36.743Z,99529.03
2023-03-06T11:11:00.854Z,99525.41
2023-03-06T11:14:23.096Z,99522.25
2023-03-06T11:17:37.752Z,99515.38
2023-03-06T11:20:53.016Z,99498.31
2023-03-06T11:24:15.434Z,99492.22
2023-03-06T11:27:34.720Z,99482.56
2023-03-06T11:30:49.668Z,99475.94
2023-03-06T11:34:16.171Z,99460.84
2023-03-06T11:37:31.851Z,99463.69
2023-03-06T11:40:55.438Z,99456.41
2023-03-06T11:44:34.705Z,99440.25
2023-03-06T11:47:54.664Z,99434.94
2023-03-06T11:51:13.754Z,99432.13
2023-03-06T11:54:26.172Z,99429.41
2023-03-06T11:58:18.939Z,99415.28
2023-03-06T12:01:41.974Z,99410.78
2023-03-06T12:05:22.914Z,99404.13
2023-03-06T12:08:58.625Z,99402.09
2023-03-06T12:12:11.205Z,99392.06
2023-03-06T12:15:49.866Z,99383.56
2023-03-06T12:19:24.934Z,99372.91
2023-03-06T12:23:02.499Z,99372.53
2023-03-06T12:26:36.817Z,99366.00
2023-03-06T12:30:19.376Z,99360.44
2023-03-06T12:33:34.924Z,99356.25
2023-03-06T12:37:09.587Z,99355.75
2023-03-06T12:40:56.194Z,99349.09
2023-03-06T12:44:30.051Z,99350.44
2023-03-06T12:47:44.595Z,99348.91
2023-03-06T12:50:56.946Z,99340.72
2023-03-06T12:54:09.787Z,99337.56
2023-03-06T12:57:24.435Z,99338.09
2023-03-06T13:00:39.977Z,99342.41
2023-03-06T13:04:26.951Z,99340.16
2023-03-06T13:07:52.961Z,99333.94
2023-03-06T13:11:20.168Z,99338.94
2023-03-06T13:14:42.386Z,99334.53
2023-03-06T13:17:58.340Z,99334.94
2023-03-06T13:21:42.076Z,99334.38
2023-03-06T13:25:20.478Z,99326.28
2023-03-06T13:28:44.938Z,99334.69
2023-03-06T13:32:03.564Z,99328.69
2023-03-06T13:35:34.717Z,99321.50
2023-03-06T13:38:52.988Z,99313.16
2023-03-06T13:42:07.255Z,99305.69
2023-03-06T13:45:23.084Z,99302.88
2023-03-06T13:48:45.071Z,99303.25
2023-03-06T13:52:30.361Z,99293.38
2023-03-06T13:56:04.247Z,99289.41
2023-03-06T14:00:03.163Z,99291.16
2023-03-06T14:03:21.116Z,99277.72
2023-03-06T14:06:36.110Z,99282.72
2023-03-06T14:10:12.046Z,99281.19
2023-03-06T14:13:30.020Z,99277.22
2023-03-06T14:16:50.131Z,99266.19
2023-03-06T14:20:12.625Z,99266.22
2023-03-06T14:23:26.551Z,99262.94
2023-03-06T14:26:43.959Z,99257.72
2023-03-06T14:30:06.400Z,99258.44
2023-03-06T14:33:31.216Z,99244.41
2023-03-06T14:36:48.635Z,99249.25
2023-03-06T14:40:01.067Z,99242.19
2023-03-06T14:43:26.824Z,99235.31
2023-03-06T14:46:39.291Z,99236.16
2023-03-06T14:50:37.055Z,99233.00
2023-03-06T14:53:50.298Z,99233.13
2023-03-06T14:57:05.979Z,99238.59
2023-03-06T15:00:20.734Z,99232.38
2023-03-06T15:03:43.365Z,99231.34
2023-03-06T15:06:55.803Z,99234.50
2023-03-06T15:10:29.869Z,99221.78
2023-03-06T15:13:42.233Z,99223.75
2023-03-06T15:16:54.870Z,99222.09
2023-03-06T15:20:10.536Z,99225.53
2023-03-06T15:23:33.866Z,99218.00
2023-03-06T15:26:46.160Z,99217.34
2023-03-06T15:30:37.110Z,99213.59
2023-03-06T15:34:01.453Z,99212.62
2023-03-06T15:37:34.247Z,99220.00
2023-03-06T15:40:54.949Z,99214.06
2023-03-06T15:44:13.484Z,99212.28
2023-03-06T15:47:25.866Z,99210.88
2023-03-06T15:50:38.546Z,99215.87
2023-03-06T15:53:53.030Z,99211.88
2023-03-06T15:57:06.390Z,99216.87
2023-03-06T16:00:28.989Z,99219.28
2023-03-06T16:03:41.616Z,99217.50
2023-03-06T16:06:53.948Z,99213.44
2023-03-06T16:10:06.767Z,99217.69
2023-03-06T16:13:27.204Z,99226.47
2023-03-06T16:16:39.920Z,99223.06
2023-03-06T16:19:52.253Z,99220.03
2023-03-06T16:23:08.028Z,99221.66
2023-03-06T16:26:27.042Z,99225.66
2023-03-06T16:29:40.025Z,99228.81
2023-03-06T16:32:52.346Z,99234.19
2023-03-06T16:36:14.434Z,99224.94
2023-03-06T16:39:26.748Z,99230.03
2023-03-06T16:42:39.344Z,99236.59
2023-03-06T16:45:51.922Z,99236.91
2023-03-06T16:49:04.542Z,99235.31
2023-03-06T16:52:17.838Z,99242.38
2023-03-06T16:55:30.478Z,99237.19
2023-03-06T16:58:43.116Z,99233.34
2023-03-06T17:01:55.730Z,99239.06
2023-03-06T17:05:08.628Z,99250.38
2023-03-06T17:08:21.297Z,99242.47
2023-03-06T17:11:35.324Z,99258.69
2023-03-06T17:14:47.929Z,99257.03
2023-03-06T17:18:00.264Z,99259.00
2023-03-06T17:21:15.545Z,99256.66
2023-03-06T17:24:28.078Z,99264.59
2023-03-06T17:27:40.726Z,99277.50
2023-03-06T17:30:53.100Z,99280.53
2023-03-06T17:34:05.693Z,99282.09
2023-03-06T17:37:18.098Z,99281.94
2023-03-06T17:40:30.712Z,99265.31
2023-03-06T17:43:43.034Z,99258.97
2023-03-06T17:46:55.648Z,99259.56
2023-03-06T17:50:08.920Z,99258.88
2023-03-06T17:53:21.696Z,99262.09
2023-03-06T17:56:34.051Z,99260.97
2023-03-06T17:59:47.765Z,99252.47
2023-03-06T18:03:00.118Z,99252.69
2023-03-06T18:06:12.886Z,99250.00
2023-03-06T18:09:25.274Z,99251.31
2023-03-06T18:12:37.903Z,99246.69
2023-03-06T18:15:50.261Z,99244.94
2023-03-06T18:19:02.900Z,99249.41
2023-03-06T18:22:15.339Z,99253.91
2023-03-06T18:25:27.962Z,99249.25
2023-03-06T18:28:42.570Z,99246.91
2023-03-06T18:31:56.853Z,99246.25
2023-03-06T18:35:09.577Z,99245.53
2023-03-06T18:38:22.216Z,99253.66
2023-03-06T18:41:34.659Z,99250.97
2023-03-06T18:44:49.856Z,99245.66
2023-03-06T18:48:04.976Z,99251.94
2023-03-06T18:51:19.351Z,99243.53
2023-03-06T18:54:31.686Z,99240.97
2023-03-06T18:57:44.339Z,99237.84
2023-03-06T19:00:58.975Z,99234.59
2023-03-06T19:04:12.168Z,99243.38
2023-03-06T19:07:24.957Z,99255.72
2023-03-06T19:10:38.281Z,99263.00
2023-03-06T19:13:50.635Z,99272.50
2023-03-06T19:17:03.329Z,99273.28
2023-03-06T19:20:15.676Z,99277.53
2023-03-06T19:23:28.257Z,99281.75
2023-03-06T19:26:41.917Z,99294.63
2023-03-06T19:29:54.553Z,99290.34
2023-03-06T19:33:06.894Z,99298.00
2023-03-06T19:36:19.852Z,99298.53
2023-03-06T19:39:32.247Z,99296.84
2023-03-06T19:42:44.915Z,99290.75
2023-03-06T19:45:57.430Z,99288.91
2023-03-06T19:49:14.060Z,99299.34
2023-03-06T19:52:26.429Z,99289.63
2023-03-06T19:55:39.944Z,99276.25
2023-03-06T19:58:52.773Z,99256.06
2023-03-06T20:02:05.418Z,99253.28
2023-03-06T20:05:18.087Z,99261.94
2023-03-06T20:08:30.450Z,99268.53
2023-03-06T20:11:43.136Z,99272.56
2023-03-06T20:14:55.498Z,99264.28
2023-03-06T20:18:08.440Z,99255.97
2023-03-06T20:21:21.616Z,99261.69
2023-03-06T20:24:34.241Z,99265.25
2023-03-06T20:27:46.606Z,99264.91
2023-03-06T20:30:59.330Z,99255.38
2023-03-06T20:34:11.786Z,99245.03
2023-03-06T20:37:24.440Z,99246.09
2023-03-06T20:40:41.031Z,99236.47
2023-03-06T20:43:53.780Z,99242.72
2023-03-06T20:47:06.197Z,99243.72
2023-03-06T20:50:18.862Z,99243.25
2023-03-06T20:53:31.285Z,99245.56
2023-03-06T20:56:46.093Z,99249.13
2023-03-06T20:59:58.398Z,99253.37
2023-03-06T21:03:10.995Z,99251.34
2023-03-06T21:06:23.511Z,99248.22
2023-03-06T21:09:37.732Z,99248.22
2023-03-06T21:12:50.043Z,99259.63
2023-03-06T21:16:06.466Z,99268.00
2023-03-06T21:19:19.329Z,99275.66
2023-03-06T21:22:31.920Z,99269.34
2023-03-06T21:25:51.472Z,99271.22
2023-03-06T21:29:04.320Z,99266.56
2023-03-06T21:32:16.734Z,99264.78
2023-03-06T21:35:29.451Z,99259.63
2023-03-06T21:38:41.846Z,99272.75
2023-03-06T21:41:54.451Z,99272.88
2023-03-06T21:45:10.275Z,99265.12
2023-03-06T21:48:22.909Z,99263.44
2023-03-06T21:51:35.270Z,99250.28
2023-03-06T21:54:49.225Z,99254.59
2023-03-06T21:58:02.981Z,99271.13
2023-03-06T22:01:23.415Z,99260.25
2023-03-06T22:04:36.260Z,99260.25
2023-03-06T22:07:48.659Z,99261.09
2023-03-06T22:11:05.801Z,99255.50
2023-03-06T22:14:18.111Z,99267.25
2023-03-06T22:17:30.794Z,99260.22
2023-03-06T22:20:44.245Z,99255.09
2023-03-06T22:23:57.569Z,99258.94
2023-03-06T22:27:09.961Z,99257.16
2023-03-06T22:30:22.620Z,99252.81
2023-03-06T22:33:35.083Z,99252.66
2023-03-06T22:36:47.730Z,99252.59
2023-03-06T22:40:00.044Z,99255.22
2023-03-06T22:43:12.601Z,99254.19
2023-03-06T22:46:25.214Z,99261.28
2023-03-06T22:49:37.959Z,99259.44
2023-03-06T22:52:50.291Z,99262.03
2023-03-06T22:56:03.965Z,99256.34
2023-03-06T22:59:16.285Z,99269.47
2023-03-06T23:02:35.368Z,99273.94
2023-03-06T23:05:47.776Z,99272.34
2023-03-06T23:09:05.865Z,99268.38
2023-03-06T23:12:37.167Z,99266.31
2023-03-06T23:16:08.550Z,99265.34
2023-03-06T23:19:39.318Z,99277.56
2023-03-06T23:23:10.979Z,99281.03
2023-03-06T23:26:26.822Z,99284.16
2023-03-06T23:29:39.476Z,99277.41
2023-03-06T23:32:51.821Z,99273.56
2023-03-06T23:36:05.955Z,99290.56
2023-03-06T23:39:18.600Z,99266.59
2023-03-06T23:42:31.695Z,99272.16
2023-03-06T23:45:55.027Z,99258.06
2023-03-06T23:49:08.198Z,99269.84
2023-03-06T23:52:20.495Z,99254.28
2023-03-06T23:55:33.139Z,99268.66
2023-03-06T23:58:45.750Z,99269.78
